Time;durP1;ratioP1;P1;durP2;ratioP2;P2;SDS_P1;SDS_P2;PMS_P1;PMS_P2;Temp;Humidity;BMP_temperature;BMP_pressure;BME280_temperature;BME280_humidity;BME280_pressure;Samples;Min_cycle;Max_cycle;Signal;HPM_P1;HPM_P2
2024/02/05 00:00:10;;;;;;;12.35;5.75;;;;;;;10.55;100.00;100990.50;6300245;28;20040;-75
2024/02/05 00:03:11;;;;;;;16.35;6.65;;;;;;;10.63;100.00;100975.19;6300142;28;20053;-75
2024/02/05 00:06:13;;;;;;;9.90;5.03;;;;;;;10.53;100.00;100984.44;6300311;28;20053;-74
2024/02/05 00:09:14;;;;;;;15.73;5.85;;;;;;;10.59;100.00;100993.81;6300127;28;20198;-78
2024/02/05 00:12:17;;;;;;;10.25;5.22;;;;;;;10.60;100.00;100983.22;6300162;28;20094;-75
2024/02/05 00:15:18;;;;;;;15.48;5.15;;;;;;;10.49;100.00;100977.66;6299962;28;20135;-77
2024/02/05 00:18:20;;;;;;;12.95;5.70;;;;;;;10.50;100.00;100975.88;6295708;28;20048;-77
2024/02/05 00:21:21;;;;;;;10.60;5.28;;;;;;;10.46;100.00;100975.19;6300267;28;20063;-77
2024/02/05 00:24:23;;;;;;;15.77;5.07;;;;;;;10.46;100.00;100972.56;6299953;28;20053;-77
2024/02/05 00:27:26;;;;;;;12.63;5.20;;;;;;;10.47;100.00;100981.28;6300009;28;20088;-77
2024/02/05 00:30:27;;;;;;;15.10;6.03;;;;;;;10.44;100.00;100969.13;6300261;28;20375;-77
2024/02/05 00:33:28;;;;;;;13.15;5.70;;;;;;;10.55;100.00;100981.75;6294571;28;20045;-77
2024/02/05 00:36:29;;;;;;;9.73;5.30;;;;;;;10.58;100.00;100977.22;6300145;28;20045;-76
2024/02/05 00:39:31;;;;;;;13.15;4.90;;;;;;;10.61;100.00;100986.69;6299449;28;20352;-78
2024/02/05 00:42:34;;;;;;;9.77;4.50;;;;;;;10.68;100.00;100988.13;6300253;28;20052;-78
2024/02/05 00:45:36;;;;;;;14.35;5.05;;;;;;;10.65;100.00;100981.22;6299909;28;20052;-76
2024/02/05 00:48:38;;;;;;;10.88;5.20;;;;;;;10.63;100.00;100976.97;6299576;28;20055;-77
2024/02/05 00:51:39;;;;;;;13.55;5.32;;;;;;;10.64;100.00;100990.03;6299906;28;20048;-76
2024/02/05 00:54:40;;;;;;;8.45;4.10;;;;;;;10.47;100.00;100990.00;6299864;28;20060;-77
2024/02/05 00:57:43;;;;;;;7.63;4.60;;;;;;;10.32;100.00;100986.38;6296772;28;20049;-77
2024/02/05 01:00:45;;;;;;;12.32;5.20;;;;;;;10.31;100.00;101023.19;6299560;28;20051;-78
2024/02/05 01:03:46;;;;;;;15.18;5.07;;;;;;;10.35;100.00;101011.63;6299051;28;20395;-76
2024/02/05 01:06:47;;;;;;;10.85;5.32;;;;;;;10.30;100.00;100997.84;6299499;28;20044;-77
2024/02/05 01:09:49;;;;;;;15.73;5.93;;;;;;;10.30;100.00;100988.19;6299716;28;20045;-77
2024/02/05 01:12:51;;;;;;;18.60;5.68;;;;;;;10.30;100.00;100984.72;6299682;28;20076;-76
2024/02/05 01:15:53;;;;;;;18.52;5.15;;;;;;;10.27;100.00;100998.03;6299302;28;20053;-77
2024/02/05 01:18:54;;;;;;;14.40;5.50;;;;;;;10.29;100.00;100996.16;6299033;28;20055;-77
2024/02/05 01:21:56;;;;;;;14.70;6.20;;;;;;;10.21;100.00;100999.09;6299584;28;20045;-78
2024/02/05 01:24:57;;;;;;;11.07;6.43;;;;;;;10.24;100.00;100999.00;6302755;28;20044;-77
2024/02/05 01:28:00;;;;;;;16.25;5.00;;;;;;;10.31;100.00;101015.31;6303637;28;20475;-76
2024/02/05 01:31:01;;;;;;;11.88;5.80;;;;;;;10.30;100.00;101000.47;6303772;28;20047;-77
2024/02/05 01:34:03;;;;;;;12.98;6.15;;;;;;;10.26;100.00;100999.78;6303838;28;20065;-77
2024/02/05 01:37:04;;;;;;;14.13;5.43;;;;;;;10.23;100.00;101010.41;6303723;28;20059;-77
2024/02/05 01:40:09;;;;;;;14.30;5.45;;;;;;;10.21;100.00;101019.28;6304184;28;20049;-77
2024/02/05 01:43:12;;;;;;;13.07;5.75;;;;;;;10.23;100.00;101009.56;6303621;28;20133;-77
2024/02/05 01:46:16;;;;;;;12.95;5.30;;;;;;;10.17;100.00;101005.44;6303607;28;20055;-76
2024/02/05 01:49:18;;;;;;;22.58;5.65;;;;;;;10.24;100.00;100996.38;6281744;28;20052;-76
2024/02/05 01:52:21;;;;;;;17.20;4.80;;;;;;;10.22;100.00;100998.22;6295244;28;20052;-76
2024/02/05 01:55:25;;;;;;;17.20;6.63;;;;;;;10.16;100.00;100998.47;6303212;28;20437;-76
2024/02/05 01:58:28;;;;;;;13.95;5.75;;;;;;;10.19;100.00;101003.59;6302742;28;20432;-76
2024/02/05 02:01:34;;;;;;;15.00;5.15;;;;;;;10.26;100.00;100988.41;6303355;28;20131;-75
2024/02/05 02:04:37;;;;;;;12.07;4.78;;;;;;;10.20;100.00;100991.31;6313506;23;20049;-77
2024/02/05 02:07:39;;;;;;;20.23;5.57;;;;;;;10.26;100.00;101001.56;6277826;28;20053;-77
2024/02/05 02:10:41;;;;;;;13.55;4.57;;;;;;;10.32;100.00;101002.13;6277921;28;20060;-75
2024/02/05 02:13:45;;;;;;;16.67;5.65;;;;;;;10.30;100.00;100995.22;6282083;28;20048;-75
2024/02/05 02:16:47;;;;;;;11.60;4.90;;;;;;;10.31;100.00;100996.91;6302554;28;20064;-76
2024/02/05 02:19:51;;;;;;;12.50;4.90;;;;;;;10.25;100.00;101005.94;6302798;28;20052;-76
2024/02/05 02:22:57;;;;;;;20.20;4.80;;;;;;;10.22;100.00;100992.97;6302596;28;20087;-76
2024/02/05 02:26:01;;;;;;;31.63;5.45;;;;;;;10.24;100.00;100999.00;6302663;28;20071;-76
2024/02/05 02:29:02;;;;;;;16.45;3.80;;;;;;;10.26;100.00;101007.66;6301853;28;20049;-77
2024/02/05 02:32:20;;;;;;;16.15;4.82;;;;;;;10.24;100.00;101014.75;6302521;28;20052;-77
2024/02/05 02:35:26;;;;;;;23.23;5.25;;;;;;;10.32;100.00;100998.66;6301007;28;20052;-76
2024/02/05 02:38:30;;;;;;;17.98;4.28;;;;;;;10.31;100.00;100999.53;6301878;28;20049;-76
2024/02/05 02:41:37;;;;;;;16.73;4.05;;;;;;;10.26;100.00;100996.28;6301894;28;20040;-76
2024/02/05 02:44:39;;;;;;;11.18;4.35;;;;;;;10.28;100.00;100997.09;6301970;28;20059;-76
2024/02/05 02:47:42;;;;;;;17.23;3.67;;;;;;;10.36;100.00;100989.69;6301603;28;20048;-76
2024/02/05 02:50:43;;;;;;;14.68;4.22;;;;;;;10.38;100.00;100996.56;6302088;28;20052;-76
2024/02/05 02:53:45;;;;;;;23.63;4.32;;;;;;;10.27;100.00;100984.88;6301480;28;20049;-76
2024/02/05 02:56:47;;;;;;;14.95;4.35;;;;;;;10.28;100.00;100978.69;6301501;28;20056;-76
2024/02/05 02:59:49;;;;;;;22.30;4.35;;;;;;;10.29;100.00;100981.25;6288877;28;20047;-77
2024/02/05 03:02:50;;;;;;;17.52;3.67;;;;;;;10.28;100.00;100984.81;6293502;28;20045;-76
2024/02/05 03:05:51;;;;;;;16.38;4.78;;;;;;;10.28;100.00;100982.19;6297261;28;20368;-77
2024/02/05 03:08:53;;;;;;;19.98;5.38;;;;;;;10.36;100.00;100990.53;6301208;28;20109;-76
2024/02/05 03:11:55;;;;;;;10.60;3.55;;;;;;;10.24;100.00;100988.50;6301417;28;20044;-76
2024/02/05 03:14:57;;;;;;;28.02;4.47;;;;;;;10.26;100.00;100991.03;6300839;28;20440;-76
2024/02/05 03:17:58;;;;;;;29.48;4.78;;;;;;;10.25;100.00;101000.69;6295497;28;20044;-77
2024/02/05 03:20:59;;;;;;;30.52;5.47;;;;;;;10.23;100.00;101007.78;6298233;28;20040;-76
2024/02/05 03:24:01;;;;;;;31.15;5.03;;;;;;;10.19;100.00;101013.25;6300906;28;20403;-77
2024/02/05 03:27:04;;;;;;;20.52;6.95;;;;;;;10.19;100.00;101011.47;6300711;28;20055;-76
2024/02/05 03:30:06;;;;;;;32.28;5.22;;;;;;;10.20;100.00;101012.31;6301252;28;20053;-77
2024/02/05 03:33:08;;;;;;;22.50;5.35;;;;;;;10.18;100.00;101006.31;6300677;28;20052;-76
2024/02/05 03:36:09;;;;;;;24.02;4.82;;;;;;;10.18;100.00;101007.16;6300733;28;20074;-76
2024/02/05 03:39:11;;;;;;;15.52;4.45;;;;;;;10.26;100.00;101005.03;6300195;28;20352;-76
2024/02/05 03:42:13;;;;;;;18.13;4.32;;;;;;;10.23;100.00;101005.16;6300495;28;20385;-76
2024/02/05 03:45:16;;;;;;;19.65;5.07;;;;;;;10.19;100.00;101006.22;6300201;28;20083;-76
2024/02/05 03:48:20;;;;;;;13.82;4.43;;;;;;;10.19;100.00;101026.38;6291531;28;20055;-76
2024/02/05 03:51:21;;;;;;;31.58;4.97;;;;;;;10.12;100.00;101002.19;6300550;28;20102;-76
2024/02/05 03:54:23;;;;;;;22.73;4.75;;;;;;;10.21;100.00;101008.75;6300064;28;20049;-76
2024/02/05 03:57:25;;;;;;;23.98;4.28;;;;;;;10.23;100.00;101001.69;6300400;28;20460;-76
2024/02/05 04:00:27;;;;;;;24.38;5.55;;;;;;;10.16;100.00;101017.72;6297341;28;20049;-76
2024/02/05 04:03:28;;;;;;;31.75;5.63;;;;;;;10.23;100.00;101020.91;6300184;28;20102;-75
2024/02/05 04:06:30;;;;;;;20.08;4.35;;;;;;;10.21;100.00;101019.28;6300141;28;20048;-76
2024/02/05 04:09:31;;;;;;;27.63;5.22;;;;;;;10.25;100.00;101020.88;6299689;28;20044;-77
2024/02/05 04:12:34;;;;;;;33.30;5.50;;;;;;;10.35;100.00;101012.47;6300476;28;20044;-76
2024/02/05 04:15:35;;;;;;;22.30;4.28;;;;;;;10.30;100.00;101017.09;6298785;28;20055;-76
2024/02/05 04:18:36;;;;;;;31.05;4.43;;;;;;;10.25;100.00;101026.97;6299324;28;20048;-75
2024/02/05 04:21:38;;;;;;;17.48;4.50;;;;;;;10.27;100.00;101033.00;6299573;28;20043;-76
2024/02/05 04:24:39;;;;;;;25.77;5.35;;;;;;;10.33;100.00;101035.34;6299583;28;20041;-76
2024/02/05 04:27:42;;;;;;;22.88;4.78;;;;;;;10.49;100.00;101018.81;6298887;28;20052;-75
2024/02/05 04:30:43;;;;;;;20.90;3.70;;;;;;;10.43;100.00;101009.47;6296265;28;20044;-76
2024/02/05 04:33:45;;;;;;;40.17;5.82;;;;;;;10.46;100.00;101024.25;6299153;28;20594;-75
2024/02/05 04:36:48;;;;;;;21.70;3.75;;;;;;;10.47;100.00;101023.31;6299283;28;20056;-76
2024/02/05 04:39:50;;;;;;;13.02;3.67;;;;;;;10.60;100.00;101034.94;6299391;28;20047;-76
2024/02/05 04:42:52;;;;;;;23.83;5.10;;;;;;;10.63;100.00;101005.88;6299475;28;20052;-76
2024/02/05 04:45:54;;;;;;;20.83;3.40;;;;;;;10.61;100.00;101019.09;6299628;28;20045;-76
2024/02/05 04:48:55;;;;;;;27.85;4.20;;;;;;;10.73;100.00;101025.53;6299205;28;20056;-75
2024/02/05 04:51:58;;;;;;;26.05;3.25;;;;;;;10.73;100.00;101024.69;6299883;28;20049;-76
2024/02/05 04:54:59;;;;;;;15.00;2.83;;;;;;;10.66;100.00;101021.50;6299350;28;20142;-76
2024/02/05 04:58:03;;;;;;;22.08;4.15;;;;;;;10.69;100.00;101016.09;6295605;28;20063;-76
2024/02/05 05:01:04;;;;;;;21.75;3.20;;;;;;;10.78;100.00;101023.53;6293469;28;20054;-76
2024/02/05 05:04:06;;;;;;;20.90;3.75;;;;;;;10.80;100.00;101018.19;6295499;28;20060;-76
2024/02/05 05:07:07;;;;;;;22.92;3.60;;;;;;;10.71;100.00;101016.00;6296122;28;20328;-76
2024/02/05 05:10:09;;;;;;;26.25;3.75;;;;;;;10.66;100.00;101053.03;6304433;28;20044;-76
2024/02/05 05:13:13;;;;;;;30.13;5.43;;;;;;;10.72;100.00;101020.31;6304029;28;20353;-76
2024/02/05 05:16:14;;;;;;;12.52;3.35;;;;;;;10.79;100.00;101046.25;6304073;28;20045;-76
2024/02/05 05:19:15;;;;;;;35.25;4.82;;;;;;;10.79;100.00;101019.09;6295333;28;20056;-76
2024/02/05 05:22:17;;;;;;;20.35;3.28;;;;;;;10.74;100.00;101036.88;6303957;28;20044;-76
2024/02/05 05:25:18;;;;;;;25.15;3.85;;;;;;;10.76;100.00;101027.13;6303707;28;20048;-76
2024/02/05 05:28:21;;;;;;;17.83;3.20;;;;;;;10.74;100.00;101032.47;6303231;28;20055;-76
2024/02/05 05:31:22;;;;;;;14.50;2.85;;;;;;;10.75;100.00;101030.69;6304010;28;20055;-76
2024/02/05 05:34:23;;;;;;;13.50;3.15;;;;;;;10.77;100.00;101029.72;6303552;28;20056;-75
2024/02/05 05:37:25;;;;;;;17.05;3.47;;;;;;;10.82;100.00;101024.22;6303329;28;20055;-75
2024/02/05 05:40:27;;;;;;;24.13;4.05;;;;;;;10.80;100.00;101013.75;6303524;28;20056;-76
2024/02/05 05:43:30;;;;;;;24.30;3.65;;;;;;;10.77;100.00;101023.59;6303545;28;20048;-76
2024/02/05 05:46:31;;;;;;;23.70;3.78;;;;;;;10.75;100.00;101028.06;6302080;28;20045;-77
2024/02/05 05:49:33;;;;;;;23.42;2.75;;;;;;;10.73;100.00;101030.78;6295975;28;20060;-76
2024/02/05 05:52:36;;;;;;;22.80;3.53;;;;;;;10.80;100.00;101019.03;6303500;28;20049;-76
2024/02/05 05:55:37;;;;;;;18.05;4.07;;;;;;;10.78;100.00;101020.88;6302868;28;20044;-76
2024/02/05 05:58:39;;;;;;;25.63;4.28;;;;;;;10.74;100.00;101029.00;6302758;28;20048;-77
2024/02/05 06:01:41;;;;;;;14.35;4.25;;;;;;;10.74;100.00;101037.75;6303059;28;20044;-76
2024/02/05 06:04:42;;;;;;;19.90;4.55;;;;;;;10.73;100.00;101029.94;6302838;28;20056;-75
2024/02/05 06:07:44;;;;;;;21.98;3.50;;;;;;;10.72;100.00;101059.75;6302449;28;20068;-77
2024/02/05 06:10:46;;;;;;;22.73;4.15;;;;;;;10.77;100.00;101040.22;6302964;28;20048;-77
2024/02/05 06:13:49;;;;;;;16.02;3.72;;;;;;;10.71;100.00;101037.03;6302610;28;20055;-77
2024/02/05 06:16:50;;;;;;;18.40;3.90;;;;;;;10.79;100.00;101029.63;6302571;28;20082;-76
2024/02/05 06:19:51;;;;;;;26.50;3.80;;;;;;;10.73;100.00;101029.94;6303008;28;20052;-77
2024/02/05 06:22:53;;;;;;;28.00;3.50;;;;;;;10.77;100.00;101042.00;6302351;28;20049;-77
2024/02/05 06:25:54;;;;;;;13.15;3.22;;;;;;;10.68;100.00;101040.69;6302028;28;20049;-75
2024/02/05 06:28:57;;;;;;;15.98;3.72;;;;;;;10.64;100.00;101054.91;6301884;28;20065;-76
2024/02/05 06:31:58;;;;;;;25.10;4.53;;;;;;;10.63;100.00;101026.91;6302512;28;20347;-77
2024/02/05 06:34:59;;;;;;;31.33;4.50;;;;;;;10.57;100.00;101040.34;6302171;28;20052;-76
2024/02/05 06:38:01;;;;;;;29.17;4.07;;;;;;;10.64;100.00;101037.34;6302178;28;20059;-76
2024/02/05 06:41:02;;;;;;;24.52;5.10;;;;;;;10.72;100.00;101049.25;6302189;28;20128;-76
2024/02/05 06:44:06;;;;;;;19.77;4.25;;;;;;;10.55;100.00;101040.41;6301792;28;20052;-76
2024/02/05 06:47:07;;;;;;;21.13;4.03;;;;;;;10.55;100.00;101022.03;6301661;28;20182;-77
2024/02/05 06:50:10;;;;;;;11.15;3.30;;;;;;;10.59;100.00;101047.22;6302202;28;20048;-77
2024/02/05 06:53:11;;;;;;;20.40;3.50;;;;;;;10.55;100.00;101045.69;6301719;28;20045;-77
2024/02/05 06:56:13;;;;;;;21.17;5.35;;;;;;;10.55;100.00;101050.09;6301827;28;20048;-76
2024/02/05 06:59:16;;;;;;;20.83;4.28;;;;;;;10.52;100.00;101079.97;6299637;28;20518;-76
2024/02/05 07:02:17;;;;;;;22.80;4.35;;;;;;;10.49;100.00;101067.00;6288250;28;20053;-76
2024/02/05 07:05:20;;;;;;;19.63;4.25;;;;;;;10.38;100.00;101062.25;6299674;28;20044;-76
2024/02/05 07:08:22;;;;;;;14.88;3.92;;;;;;;10.40;100.00;101075.28;6289329;28;20055;-77
2024/02/05 07:11:23;;;;;;;22.92;4.88;;;;;;;10.53;100.00;101104.47;6301482;28;20048;-77
2024/02/05 07:14:26;;;;;;;13.20;2.95;;;;;;;10.56;100.00;101117.47;6298596;28;20056;-77
2024/02/05 07:17:32;;;;;;;16.27;3.97;;;;;;;10.53;100.00;101093.97;6291607;28;20044;-76
2024/02/05 07:20:33;;;;;;;20.55;3.83;;;;;;;10.45;100.00;101094.34;6297492;28;20051;-76
2024/02/05 07:23:35;;;;;;;19.02;3.80;;;;;;;10.40;100.00;101102.44;6291384;28;20330;-76
2024/02/05 07:26:37;;;;;;;25.65;4.15;;;;;;;10.52;100.00;101111.50;6299992;28;20052;-76
2024/02/05 07:29:42;;;;;;;21.83;4.60;;;;;;;10.48;100.00;101107.31;6298685;28;20048;-76
2024/02/05 07:32:43;;;;;;;30.73;5.45;;;;;;;10.43;100.00;101118.97;6292747;28;20182;-75
2024/02/05 07:35:44;;;;;;;27.27;5.25;;;;;;;10.42;100.00;101105.00;6297700;28;20102;-76
2024/02/05 07:38:46;;;;;;;17.20;4.15;;;;;;;10.26;100.00;101099.59;6290269;28;20053;-77
2024/02/05 07:41:47;;;;;;;30.55;4.90;;;;;;;10.22;100.00;101113.78;6292441;28;20037;-75
2024/02/05 07:44:49;;;;;;;22.50;4.30;;;;;;;10.23;100.00;101118.09;6293308;28;20352;-76
2024/02/05 07:47:51;;;;;;;12.85;3.85;;;;;;;10.25;100.00;101111.03;6291787;28;20078;-76
2024/02/05 07:50:52;;;;;;;14.00;3.38;;;;;;;10.18;100.00;101116.63;6291937;28;20056;-77
2024/02/05 07:53:54;;;;;;;22.80;5.30;;;;;;;10.27;100.00;101147.75;6283851;28;20487;-76
2024/02/05 07:56:56;;;;;;;24.88;4.35;;;;;;;10.28;100.00;101118.78;6291219;28;20067;-77
2024/02/05 08:00:00;;;;;;;17.88;4.63;;;;;;;10.09;100.00;101110.84;6290590;28;20135;-75
2024/02/05 08:03:02;;;;;;;20.45;3.47;;;;;;;10.25;100.00;101132.03;6297380;28;20045;-77
2024/02/05 08:06:06;;;;;;;22.73;4.68;;;;;;;10.30;100.00;101122.16;6272807;23;20054;-74
2024/02/05 08:09:07;;;;;;;14.95;3.38;;;;;;;10.30;100.00;101119.53;6242066;28;20068;-73
2024/02/05 08:12:09;;;;;;;15.23;3.35;;;;;;;10.26;100.00;101117.13;6248279;28;20354;-75
2024/02/05 08:15:11;;;;;;;14.70;3.03;;;;;;;10.24;100.00;101135.59;6244874;28;20045;-76
2024/02/05 08:18:13;;;;;;;11.85;3.72;;;;;;;10.33;100.00;101126.44;6247200;28;20052;-75
2024/02/05 08:21:15;;;;;;;23.83;3.40;;;;;;;10.36;100.00;101137.66;6237990;28;20045;-76
2024/02/05 08:24:17;;;;;;;24.65;4.00;;;;;;;10.28;100.00;101142.41;6242403;28;20132;-76
2024/02/05 08:27:18;;;;;;;22.63;4.47;;;;;;;10.24;100.00;101148.72;6249797;28;20472;-76
2024/02/05 08:30:21;;;;;;;28.83;4.40;;;;;;;10.18;100.00;101138.47;6243301;28;20050;-75
2024/02/05 08:33:22;;;;;;;18.20;4.28;;;;;;;10.25;100.00;101144.31;6242936;28;20046;-75
2024/02/05 08:36:23;;;;;;;20.98;3.10;;;;;;;10.30;100.00;101134.44;6247626;28;20061;-75
2024/02/05 08:39:25;;;;;;;12.35;2.72;;;;;;;10.16;100.00;101141.16;6255186;28;20053;-76
2024/02/05 08:42:26;;;;;;;22.05;3.47;;;;;;;10.11;100.00;101143.13;6254619;28;20045;-75
2024/02/05 08:45:29;;;;;;;27.33;4.25;;;;;;;10.21;100.00;101155.84;6249134;28;20050;-77
2024/02/05 08:48:31;;;;;;;17.02;4.45;;;;;;;10.13;100.00;101137.84;6246725;28;20050;-76
2024/02/05 08:51:34;;;;;;;29.13;5.03;;;;;;;10.20;100.00;101147.13;6255126;28;20433;-77
2024/02/05 08:54:35;;;;;;;23.63;3.20;;;;;;;10.22;100.00;101147.91;6255028;28;20187;-76
2024/02/05 08:57:37;;;;;;;25.13;3.97;;;;;;;10.16;100.00;101140.31;6254569;28;20476;-77
2024/02/05 09:00:40;;;;;;;31.50;4.63;;;;;;;10.03;100.00;101142.63;6254824;28;20053;-77
2024/02/05 09:03:41;;;;;;;22.48;3.50;;;;;;;10.06;100.00;101157.41;6255089;28;20053;-77
2024/02/05 09:06:43;;;;;;;21.02;5.38;;;;;;;10.11;100.00;101172.03;6275345;28;20566;-77
2024/02/05 09:09:44;;;;;;;20.20;4.82;;;;;;;10.18;100.00;101154.22;6273363;28;20381;-76
2024/02/05 09:12:46;;;;;;;43.38;7.22;;;;;;;10.18;100.00;101158.63;6270297;28;20045;-77
2024/02/05 09:15:48;;;;;;;23.77;4.88;;;;;;;10.16;100.00;101167.41;6271848;28;20056;-77
2024/02/05 09:18:50;;;;;;;29.85;4.35;;;;;;;10.16;100.00;101164.78;6270359;28;20049;-78
2024/02/05 09:21:51;;;;;;;22.23;4.32;;;;;;;9.98;100.00;101162.97;6279321;28;20049;-77
2024/02/05 09:24:52;;;;;;;12.05;3.15;;;;;;;10.17;100.00;101168.25;6278467;28;20576;-76
2024/02/05 09:27:54;;;;;;;25.00;3.58;;;;;;;10.12;100.00;101173.72;6274751;28;20441;-77
2024/02/05 09:30:57;;;;;;;24.90;4.25;;;;;;;10.28;100.00;101158.16;6274853;28;20056;-77
2024/02/05 09:33:58;;;;;;;13.90;3.70;;;;;;;10.36;100.00;101163.94;6278775;28;20052;-77
2024/02/05 09:37:00;;;;;;;27.00;3.83;;;;;;;10.43;100.00;101153.13;6278578;28;20052;-73
2024/02/05 09:40:01;;;;;;;14.45;3.35;;;;;;;10.33;100.00;101189.50;6271652;28;20443;-76
2024/02/05 09:43:03;;;;;;;19.40;3.45;;;;;;;10.28;100.00;101152.06;6278471;28;20048;-77
2024/02/05 09:46:11;;;;;;;18.33;4.00;;;;;;;10.39;100.00;101145.38;6263721;28;20049;-76
2024/02/05 09:49:12;;;;;;;17.23;4.88;;;;;;;10.20;100.00;101167.28;6269907;28;20414;-74
2024/02/05 09:52:14;;;;;;;14.60;4.28;;;;;;;10.24;100.00;101155.72;6278567;28;20049;-76
2024/02/05 09:55:16;;;;;;;22.23;4.05;;;;;;;10.30;100.00;101153.69;6278350;28;20045;-77
2024/02/05 09:58:18;;;;;;;19.50;4.85;;;;;;;10.29;100.00;101151.13;6277312;28;20060;-76
2024/02/05 10:01:21;;;;;;;17.95;5.93;;;;;;;10.31;100.00;101149.28;6272640;28;20061;-74
2024/02/05 10:04:24;;;;;;;26.52;3.90;;;;;;;10.37;100.00;101170.03;6268571;28;20064;-76
2024/02/05 10:07:27;;;;;;;13.18;3.15;;;;;;;10.38;100.00;101177.84;6277497;28;20060;-76
2024/02/05 10:10:29;;;;;;;22.83;3.72;;;;;;;10.43;100.00;101156.59;6268317;28;20049;-77
2024/02/05 10:13:31;;;;;;;23.33;4.07;;;;;;;10.57;100.00;101177.00;6269329;28;20128;-76
2024/02/05 10:16:35;;;;;;;18.40;3.80;;;;;;;10.53;100.00;101160.50;6268719;28;20054;-76
2024/02/05 10:19:36;;;;;;;18.85;3.58;;;;;;;10.56;100.00;101170.03;6276571;28;20126;-76
2024/02/05 10:22:44;;;;;;;21.75;4.00;;;;;;;10.47;100.00;101158.19;6269462;28;20052;-74
2024/02/05 10:25:46;;;;;;;18.52;2.42;;;;;;;10.50;100.00;101168.56;6270305;28;20083;-76
2024/02/05 10:28:47;;;;;;;18.38;3.65;;;;;;;10.34;100.00;101157.03;6269031;28;20060;-76
2024/02/05 10:31:53;;;;;;;20.23;3.50;;;;;;;10.52;100.00;101164.06;6277680;28;20053;-74
2024/02/05 10:34:56;;;;;;;15.30;4.47;;;;;;;10.37;100.00;101159.53;6272990;28;20057;-72
2024/02/05 10:38:08;;;;;;;18.95;3.60;;;;;;;10.44;100.00;101157.47;6276520;28;20053;-75
2024/02/05 10:41:09;;;;;;;17.95;3.20;;;;;;;10.47;100.00;101175.72;6277517;28;20048;-76
2024/02/05 10:44:11;;;;;;;15.02;3.65;;;;;;;10.39;100.00;101168.19;6276548;28;20132;-76
2024/02/05 10:47:13;;;;;;;26.85;4.85;;;;;;;10.35;100.00;101158.72;6269232;28;20053;-75
2024/02/05 10:50:15;;;;;;;25.40;3.67;;;;;;;10.47;100.00;101167.84;6276307;28;20056;-77
2024/02/05 10:53:17;;;;;;;27.02;4.45;;;;;;;10.47;100.00;101166.06;6275275;28;20041;-75
2024/02/05 10:56:19;;;;;;;16.80;3.63;;;;;;;10.38;100.00;101177.00;6252797;28;20061;-76
2024/02/05 10:59:22;;;;;;;25.10;4.80;;;;;;;10.48;100.00;101153.78;6251552;28;20046;-76
2024/02/05 11:02:28;;;;;;;11.32;3.35;;;;;;;10.54;100.00;101143.84;6252155;28;20049;-74
2024/02/05 11:05:29;;;;;;;18.45;3.30;;;;;;;10.40;100.00;101165.50;6251669;28;20049;-75
2024/02/05 11:08:35;;;;;;;18.95;3.40;;;;;;;10.31;100.00;101152.78;6252960;28;20049;-73
2024/02/05 11:11:38;;;;;;;14.38;3.45;;;;;;;10.36;100.00;101163.94;6276825;28;20484;-75
2024/02/05 11:14:45;;;;;;;19.77;3.75;;;;;;;10.38;100.00;101158.59;6276191;28;20129;-76
2024/02/05 11:17:48;;;;;;;24.48;3.08;;;;;;;10.46;100.00;101153.00;6276207;28;20048;-76
2024/02/05 11:20:50;;;;;;;24.58;4.53;;;;;;;10.30;100.00;101131.81;6276985;28;20448;-75
2024/02/05 11:23:52;;;;;;;22.70;5.35;;;;;;;10.27;100.00;101130.22;6267397;28;20049;-74
2024/02/05 11:26:55;;;;;;;16.42;2.78;;;;;;;10.27;100.00;101122.31;6259514;28;20052;-76
2024/02/05 11:29:56;;;;;;;15.05;3.00;;;;;;;10.28;100.00;101139.78;6266141;28;20049;-75
2024/02/05 11:32:59;;;;;;;16.75;3.47;;;;;;;10.36;100.00;101144.69;6267199;28;20053;-75
2024/02/05 11:36:02;;;;;;;18.45;3.42;;;;;;;10.45;100.00;101135.53;6267710;28;20053;-73
2024/02/05 11:39:04;;;;;;;20.40;2.80;;;;;;;10.30;100.00;101137.94;6275998;28;20053;-74
2024/02/05 11:42:08;;;;;;;25.13;4.22;;;;;;;10.35;100.00;101129.84;6276202;28;20055;-74
2024/02/05 11:45:10;;;;;;;21.50;3.53;;;;;;;10.31;100.00;101123.00;6269361;28;20362;-74
2024/02/05 11:48:13;;;;;;;15.77;3.63;;;;;;;10.31;100.00;101121.25;6273196;28;20060;-76
2024/02/05 11:51:16;;;;;;;14.75;3.13;;;;;;;10.45;100.00;101128.50;6275633;28;20049;-76
2024/02/05 11:54:18;;;;;;;26.10;4.57;;;;;;;10.43;100.00;101126.84;6275005;28;20044;-76
2024/02/05 11:57:19;;;;;;;15.60;2.78;;;;;;;10.43;100.00;101122.44;6274340;28;20122;-76
2024/02/05 12:00:21;;;;;;;17.73;3.40;;;;;;;10.52;100.00;101116.75;6275239;28;20159;-76
2024/02/05 12:03:24;;;;;;;12.98;4.68;;;;;;;10.54;100.00;101114.94;6275171;28;20459;-76
2024/02/05 12:06:26;;;;;;;14.30;3.05;;;;;;;10.45;100.00;101107.50;6267393;28;20463;-76
2024/02/05 12:09:27;;;;;;;24.00;3.47;;;;;;;10.41;100.00;101117.28;6274594;28;20106;-76
2024/02/05 12:12:30;;;;;;;26.70;4.18;;;;;;;10.41;100.00;101096.25;6276013;28;20049;-76
2024/02/05 12:15:33;;;;;;;11.50;2.65;;;;;;;10.48;100.00;101086.28;6260650;28;20175;-77
2024/02/05 12:18:36;;;;;;;20.83;3.85;;;;;;;10.57;100.00;101085.84;6266409;28;20360;-73
2024/02/05 12:21:39;;;;;;;25.45;3.70;;;;;;;10.64;100.00;101082.03;6275528;28;20053;-75
2024/02/05 12:24:40;;;;;;;15.27;3.03;;;;;;;10.50;100.00;101084.47;6274819;28;20108;-74
2024/02/05 12:27:42;;;;;;;20.75;3.72;;;;;;;10.46;100.00;101093.41;6274944;28;20056;-74
2024/02/05 12:30:43;;;;;;;17.77;3.50;;;;;;;10.60;100.00;101079.63;6275327;28;20048;-75
2024/02/05 12:33:50;;;;;;;26.33;4.18;;;;;;;10.57;100.00;101080.59;6275081;28;20041;-74
2024/02/05 12:36:51;;;;;;;21.63;4.40;;;;;;;10.58;100.00;101076.19;6274536;28;20334;-74
2024/02/05 12:39:53;;;;;;;18.60;3.50;;;;;;;10.53;100.00;101076.41;6275086;28;20349;-75
2024/02/05 12:43:01;;;;;;;26.30;3.88;;;;;;;10.44;100.00;101076.00;6274835;28;20056;-75
2024/02/05 12:46:04;;;;;;;14.20;3.42;;;;;;;10.56;100.00;101072.81;6274799;28;20360;-73
2024/02/05 12:49:07;;;;;;;14.98;3.67;;;;;;;10.50;100.00;101073.97;6274489;28;20049;-73
2024/02/05 12:52:08;;;;;;;21.88;5.03;;;;;;;10.57;100.00;101077.13;6274704;28;20445;-74
2024/02/05 12:55:09;;;;;;;14.95;4.10;;;;;;;10.60;100.00;101075.22;6274043;28;20349;-73
2024/02/05 12:58:12;;;;;;;17.88;3.67;;;;;;;10.60;100.00;101074.38;6274372;28;20045;-73
2024/02/05 13:01:13;;;;;;;15.13;3.78;;;;;;;10.62;100.00;101068.09;6274433;28;20045;-74
2024/02/05 13:04:16;;;;;;;26.88;3.97;;;;;;;10.66;100.00;101074.06;6273580;28;20053;-75
2024/02/05 13:07:19;;;;;;;23.25;5.10;;;;;;;10.50;100.00;101073.97;6273705;28;20494;-74
2024/02/05 13:10:21;;;;;;;15.80;3.60;;;;;;;10.64;100.00;101083.81;6273595;28;20055;-74
2024/02/05 13:13:22;;;;;;;17.80;3.05;;;;;;;10.64;100.00;101082.03;6273663;28;20059;-74
2024/02/05 13:16:24;;;;;;;13.95;3.25;;;;;;;10.58;100.00;101082.31;6273957;28;20045;-74
2024/02/05 13:19:27;;;;;;;22.75;4.65;;;;;;;10.62;100.00;101078.59;6275081;28;20045;-74
2024/02/05 13:22:29;;;;;;;12.77;3.40;;;;;;;10.58;100.00;101089.34;6277030;28;20057;-74
2024/02/05 13:25:30;;;;;;;17.60;3.60;;;;;;;10.67;100.00;101081.00;6278244;28;20120;-74
2024/02/05 13:28:32;;;;;;;14.60;3.10;;;;;;;10.55;100.00;101074.59;6277918;28;20037;-74
2024/02/05 13:31:34;;;;;;;20.67;3.17;;;;;;;10.58;100.00;101069.19;6278374;28;20071;-74
2024/02/05 13:34:37;;;;;;;18.35;3.85;;;;;;;10.44;100.00;101062.88;6278162;28;20094;-74
2024/02/05 13:37:38;;;;;;;10.02;3.97;;;;;;;10.50;100.00;101059.97;6276519;28;20044;-74
2024/02/05 13:40:40;;;;;;;20.38;4.30;;;;;;;10.36;100.00;101066.72;6278182;28;20049;-75
2024/02/05 13:43:41;;;;;;;18.75;5.95;;;;;;;10.42;100.00;101065.59;6277767;28;20338;-75
2024/02/05 13:46:43;;;;;;;22.90;5.60;;;;;;;10.45;100.00;101075.09;6277599;28;20118;-76